createdAt,value
2022-10-29T00:01:18.175Z,5.36
2022-10-29T00:03:44.890Z,5.33
2022-10-29T00:06:12.210Z,5.30
2022-10-29T00:08:39.496Z,5.27
2022-10-29T00:11:07.250Z,5.25
2022-10-29T00:13:34.363Z,5.24
2022-10-29T00:16:05.637Z,5.22
2022-10-29T00:18:32.178Z,5.20
2022-10-29T00:21:07.799Z,5.19
2022-10-29T00:23:35.096Z,5.18
2022-10-29T00:26:03.272Z,5.17
2022-10-29T00:28:30.531Z,5.17
2022-10-29T00:30:57.170Z,5.16
2022-10-29T00:33:23.832Z,5.15
2022-10-29T00:35:57.550Z,5.14
2022-10-29T00:38:24.058Z,5.15
2022-10-29T00:40:50.839Z,5.16
2022-10-29T00:43:20.582Z,5.16
2022-10-29T00:45:58.994Z,5.15
2022-10-29T00:48:28.176Z,5.13
2022-10-29T00:50:56.525Z,5.10
2022-10-29T00:53:28.764Z,5.07
2022-10-29T00:55:55.336Z,5.06
2022-10-29T00:58:22.353Z,5.06
2022-10-29T01:00:48.863Z,5.05
2022-10-29T01:03:15.433Z,5.04
2022-10-29T01:05:44.180Z,5.02
2022-10-29T01:08:11.270Z,5.01
2022-10-29T01:10:49.186Z,4.99
2022-10-29T01:13:40.744Z,4.98
2022-10-29T01:16:16.299Z,4.98
2022-10-29T01:19:02.065Z,4.98
2022-10-29T01:21:41.789Z,4.98
2022-10-29T01:24:17.289Z,4.97
2022-10-29T01:26:49.566Z,4.95
2022-10-29T01:29:34.642Z,4.94
2022-10-29T01:32:11.235Z,4.92
2022-10-29T01:34:44.027Z,4.90
2022-10-29T01:37:22.832Z,4.90
2022-10-29T01:40:07.611Z,4.89
2022-10-29T01:42:45.596Z,4.89
2022-10-29T01:45:18.753Z,4.88
2022-10-29T01:47:51.302Z,4.90
2022-10-29T01:50:21.885Z,4.91
2022-10-29T01:52:50.230Z,4.92
2022-10-29T01:55:22.660Z,4.92
2022-10-29T01:57:49.232Z,4.91
2022-10-29T02:00:19.040Z,4.89
2022-10-29T02:03:04.470Z,4.87
2022-10-29T02:05:30.842Z,4.86
2022-10-29T02:08:01.083Z,4.86
2022-10-29T02:10:33.905Z,4.87
2022-10-29T02:13:00.511Z,4.87
2022-10-29T02:15:46.264Z,4.88
2022-10-29T02:18:12.709Z,4.87
2022-10-29T02:20:43.469Z,4.87
2022-10-29T02:23:10.418Z,4.85
2022-10-29T02:25:36.998Z,4.83
2022-10-29T02:28:04.115Z,4.82
2022-10-29T02:30:30.856Z,4.81
2022-10-29T02:32:57.879Z,4.79
2022-10-29T02:35:24.551Z,4.76
2022-10-29T02:37:51.192Z,4.75
2022-10-29T02:40:17.753Z,4.75
2022-10-29T02:42:44.274Z,4.78
2022-10-29T02:45:10.917Z,4.79
2022-10-29T02:47:37.328Z,4.79
2022-10-29T02:50:04.235Z,4.78
2022-10-29T02:52:30.684Z,4.78
2022-10-29T02:54:57.175Z,4.77
2022-10-29T02:57:23.714Z,4.77
2022-10-29T02:59:50.259Z,4.75
2022-10-29T03:02:16.846Z,4.74
2022-10-29T03:04:43.491Z,4.74
2022-10-29T03:07:10.484Z,4.75
2022-10-29T03:09:36.986Z,4.76
2022-10-29T03:12:03.566Z,4.74
2022-10-29T03:14:30.102Z,4.73
2022-10-29T03:16:56.848Z,4.72
2022-10-29T03:19:23.294Z,4.71
2022-10-29T03:21:49.830Z,4.71
2022-10-29T03:24:16.367Z,4.71
2022-10-29T03:26:42.907Z,4.71
2022-10-29T03:29:09.547Z,4.71
2022-10-29T03:31:36.092Z,4.74
2022-10-29T03:34:02.527Z,4.74
2022-10-29T03:36:29.072Z,4.75
2022-10-29T03:38:55.607Z,4.75
2022-10-29T03:41:22.046Z,4.74
2022-10-29T03:43:48.560Z,4.74
2022-10-29T03:46:15.121Z,4.75
2022-10-29T03:48:41.569Z,4.80
2022-10-29T03:51:08.146Z,4.83
2022-10-29T03:53:36.680Z,4.86
2022-10-29T03:56:04.047Z,4.90
2022-10-29T03:58:30.579Z,4.91
2022-10-29T04:01:01.209Z,4.93
2022-10-29T04:03:30.107Z,4.94
2022-10-29T04:05:57.213Z,4.95
2022-10-29T04:08:23.810Z,4.97
2022-10-29T04:10:51.022Z,4.98
2022-10-29T04:13:17.962Z,4.98
2022-10-29T04:15:45.212Z,4.97
2022-10-29T04:18:12.529Z,4.98
2022-10-29T04:21:31.309Z,4.98
2022-10-29T04:29:01.150Z,5.04
2022-10-29T04:31:27.693Z,5.06
2022-10-29T04:33:54.389Z,5.08
2022-10-29T04:36:20.975Z,5.10
2022-10-29T04:38:47.613Z,5.12
2022-10-29T04:41:14.183Z,5.14
2022-10-29T04:43:40.688Z,5.15
2022-10-29T04:46:07.228Z,5.16
2022-10-29T04:48:33.802Z,5.14
2022-10-29T04:51:00.267Z,5.13
2022-10-29T04:53:26.904Z,5.12
2022-10-29T04:55:59.542Z,5.10
2022-10-29T04:58:26.073Z,5.09
2022-10-29T05:00:52.642Z,5.09
2022-10-29T05:03:19.346Z,5.10
2022-10-29T05:05:45.786Z,5.11
2022-10-29T05:08:12.325Z,5.11
2022-10-29T05:10:40.010Z,5.13
2022-10-29T05:13:10.805Z,5.14
2022-10-29T05:15:38.289Z,5.16
2022-10-29T05:18:06.083Z,5.17
2022-10-29T05:20:33.337Z,5.19
2022-10-29T05:23:08.669Z,5.21
2022-10-29T05:25:37.035Z,5.24
2022-10-29T05:28:06.146Z,5.26
2022-10-29T05:30:34.412Z,5.29
2022-10-29T05:33:01.169Z,5.31
2022-10-29T05:35:27.949Z,5.34
2022-10-29T05:37:55.822Z,5.38
2022-10-29T05:40:24.162Z,5.42
2022-10-29T05:42:50.999Z,5.46
2022-10-29T05:45:18.256Z,5.52
2022-10-29T05:47:45.520Z,5.57
2022-10-29T05:50:12.979Z,5.64
2022-10-29T05:52:39.822Z,5.71
2022-10-29T05:55:07.203Z,5.78
2022-10-29T05:57:33.715Z,5.85
2022-10-29T06:00:02.130Z,5.92
2022-10-29T06:02:28.738Z,6.01
2022-10-29T06:04:55.277Z,6.13
2022-10-29T06:07:21.746Z,6.27
2022-10-29T06:09:48.158Z,6.42
2022-10-29T06:12:14.571Z,6.58
2022-10-29T06:14:41.119Z,6.77
2022-10-29T06:17:07.558Z,6.95
2022-10-29T06:19:34.131Z,7.10
2022-10-29T06:22:00.810Z,7.28
2022-10-29T06:24:28.319Z,7.46
2022-10-29T06:26:55.092Z,7.63
2022-10-29T06:29:21.584Z,7.86
2022-10-29T06:31:48.121Z,8.13
2022-10-29T06:34:14.574Z,8.40
2022-10-29T06:36:41.098Z,8.66
2022-10-29T06:39:07.844Z,8.93
2022-10-29T06:41:34.385Z,9.24
2022-10-29T06:44:00.926Z,9.50
2022-10-29T06:46:27.345Z,9.74
2022-10-29T06:48:53.924Z,9.89
2022-10-29T06:51:20.656Z,10.06
2022-10-29T06:53:47.068Z,10.24
2022-10-29T06:56:13.525Z,10.21
2022-10-29T06:58:40.166Z,10.20
2022-10-29T07:01:06.707Z,10.24
2022-10-29T07:03:33.246Z,10.18
2022-10-29T07:06:00.206Z,10.12
2022-10-29T07:08:27.045Z,10.04
2022-10-29T07:10:54.515Z,9.99
2022-10-29T07:13:21.044Z,9.92
2022-10-29T07:15:47.686Z,10.00
2022-10-29T07:18:14.240Z,10.14
2022-10-29T07:20:42.982Z,10.25
2022-10-29T07:23:10.680Z,10.33
2022-10-29T07:25:38.761Z,10.35
2022-10-29T07:28:08.180Z,10.39
2022-10-29T07:30:34.807Z,10.36
2022-10-29T07:33:01.251Z,10.34
2022-10-29T07:35:27.791Z,10.39
2022-10-29T07:38:05.400Z,10.51
2022-10-29T07:40:35.927Z,10.58
2022-10-29T07:43:02.471Z,10.70
2022-10-29T07:45:29.089Z,10.88
2022-10-29T07:48:03.695Z,11.06
2022-10-29T07:50:31.501Z,11.21
2022-10-29T07:53:02.544Z,11.43
2022-10-29T07:58:03.109Z,11.86
2022-10-29T08:00:34.667Z,12.00
2022-10-29T08:03:01.604Z,12.15
2022-10-29T08:05:30.007Z,12.32
2022-10-29T08:07:57.853Z,12.58
2022-10-29T08:10:25.719Z,12.83
2022-10-29T08:12:54.474Z,12.99
2022-10-29T08:15:22.077Z,13.27
2022-10-29T08:17:50.478Z,13.55
2022-10-29T08:20:17.616Z,13.78
2022-10-29T08:22:44.378Z,13.91
2022-10-29T08:25:12.433Z,14.01
2022-10-29T08:27:39.248Z,14.11
2022-10-29T08:30:08.045Z,14.23
2022-10-29T08:32:34.616Z,14.49
2022-10-29T08:35:01.882Z,14.87
2022-10-29T08:37:29.948Z,15.08
2022-10-29T08:39:56.487Z,15.20
2022-10-29T08:42:32.358Z,15.16
2022-10-29T08:45:23.675Z,15.10
2022-10-29T08:48:11.822Z,14.94
2022-10-29T08:50:43.504Z,14.81
2022-10-29T08:53:27.666Z,14.73
2022-10-29T08:55:58.604Z,14.62
2022-10-29T08:58:37.441Z,14.51
2022-10-29T09:01:10.782Z,14.34
2022-10-29T09:03:37.768Z,14.40
2022-10-29T09:06:09.023Z,14.61
2022-10-29T09:09:09.010Z,14.74
2022-10-29T09:11:44.828Z,14.74
2022-10-29T09:14:20.666Z,14.89
2022-10-29T09:17:26.157Z,15.17
2022-10-29T09:20:19.397Z,15.82
2022-10-29T09:22:54.135Z,16.54
2022-10-29T09:26:03.467Z,17.15
2022-10-29T09:28:43.188Z,17.90
2022-10-29T09:31:28.189Z,18.34
2022-10-29T09:34:02.728Z,18.41
2022-10-29T09:36:30.889Z,18.44
2022-10-29T09:39:00.519Z,18.50
2022-10-29T09:41:32.705Z,18.60
2022-10-29T09:44:00.451Z,18.48
2022-10-29T09:46:47.646Z,18.30
2022-10-29T09:49:28.558Z,18.13
2022-10-29T09:51:55.094Z,18.04
2022-10-29T09:54:25.040Z,17.95
2022-10-29T09:56:53.285Z,18.03
2022-10-29T09:59:46.358Z,18.03
2022-10-29T10:02:18.975Z,18.06
2022-10-29T10:04:49.317Z,18.11
2022-10-29T10:07:18.873Z,18.10
2022-10-29T10:10:04.055Z,18.23
2022-10-29T10:12:36.538Z,18.27
2022-10-29T10:15:18.216Z,18.16
2022-10-29T10:18:00.541Z,18.28
2022-10-29T10:20:35.324Z,18.49
2022-10-29T10:23:03.451Z,18.66
2022-10-29T10:25:40.311Z,18.70
2022-10-29T10:28:23.570Z,18.78
2022-10-29T10:31:11.959Z,18.97
2022-10-29T10:33:50.061Z,18.95
2022-10-29T10:36:18.419Z,18.97
2022-10-29T10:38:51.159Z,18.86
2022-10-29T10:41:24.984Z,18.70
2022-10-29T10:43:51.888Z,18.81
2022-10-29T10:46:27.122Z,18.73
2022-10-29T10:49:06.565Z,18.54
2022-10-29T10:51:36.173Z,18.56
2022-10-29T10:54:21.455Z,18.47
2022-10-29T10:57:13.061Z,18.45
2022-10-29T11:00:03.274Z,18.57
2022-10-29T11:02:29.897Z,18.61
2022-10-29T11:05:05.327Z,18.67
2022-10-29T11:07:37.640Z,18.64
2022-10-29T11:10:07.650Z,18.60
2022-10-29T11:12:43.079Z,18.58
2022-10-29T11:15:19.885Z,18.71
2022-10-29T11:17:54.423Z,18.77
2022-10-29T11:20:27.004Z,18.76
2022-10-29T11:23:25.892Z,18.72
2022-10-29T11:26:11.789Z,18.55
2022-10-29T11:28:51.560Z,18.45
2022-10-29T11:31:22.267Z,18.46
2022-10-29T11:33:51.517Z,18.61
2022-10-29T11:36:24.258Z,18.79
2022-10-29T11:39:02.263Z,18.81
2022-10-29T11:41:52.051Z,18.71
2022-10-29T11:44:19.110Z,18.61
2022-10-29T11:47:04.180Z,18.65
2022-10-29T11:49:33.688Z,18.93
2022-10-29T11:52:09.240Z,19.12
2022-10-29T11:55:08.138Z,19.04
2022-10-29T11:57:47.710Z,18.95
2022-10-29T12:00:19.137Z,18.94
2022-10-29T12:03:17.749Z,19.09
2022-10-29T12:05:50.935Z,19.34
2022-10-29T12:08:29.660Z,19.34
2022-10-29T12:11:17.805Z,19.37
2022-10-29T12:13:56.022Z,19.43
2022-10-29T12:16:25.197Z,19.38
2022-10-29T12:19:06.375Z,19.43
2022-10-29T12:22:02.136Z,19.39
2022-10-29T12:25:13.018Z,19.31
2022-10-29T12:27:54.612Z,19.31
2022-10-29T12:30:24.168Z,19.26
2022-10-29T12:33:24.096Z,19.32
2022-10-29T12:38:42.478Z,19.18
2022-10-29T12:41:25.982Z,19.17
2022-10-29T12:44:03.630Z,19.25
2022-10-29T12:46:43.626Z,19.31
2022-10-29T12:49:22.455Z,19.24
2022-10-29T12:54:49.742Z,19.20
2022-10-29T12:57:16.170Z,19.08
2022-10-29T12:59:43.753Z,18.90
2022-10-29T13:02:28.741Z,18.74
2022-10-29T13:05:07.649Z,18.69
2022-10-29T13:07:35.007Z,18.53
2022-10-29T13:10:23.469Z,18.40
2022-10-29T13:12:59.126Z,18.25
2022-10-29T13:15:39.583Z,18.13
2022-10-29T13:18:18.068Z,18.03
2022-10-29T13:20:53.045Z,18.05
2022-10-29T13:23:23.476Z,18.02
2022-10-29T13:25:57.802Z,17.95
2022-10-29T13:28:24.343Z,17.83
2022-10-29T13:31:13.825Z,17.80
2022-10-29T13:33:40.274Z,17.70
2022-10-29T13:36:16.120Z,17.58
2022-10-29T13:39:05.776Z,17.54
2022-10-29T13:41:38.304Z,17.60
2022-10-29T13:44:07.798Z,17.62
2022-10-29T13:47:20.325Z,17.63
2022-10-29T13:49:48.870Z,17.63
2022-10-29T13:52:17.804Z,17.66
2022-10-29T13:55:07.704Z,17.70
2022-10-29T13:57:46.471Z,17.63
2022-10-29T14:00:12.889Z,17.53
2022-10-29T14:02:42.495Z,17.44
2022-10-29T14:05:11.981Z,17.37
2022-10-29T14:08:14.277Z,17.30
2022-10-29T14:10:40.728Z,17.23
2022-10-29T14:13:23.535Z,17.21
2022-10-29T14:16:09.216Z,17.10
2022-10-29T14:18:39.068Z,17.12
2022-10-29T14:21:12.905Z,17.19
2022-10-29T14:23:40.214Z,17.19
2022-10-29T14:26:15.791Z,17.19
2022-10-29T14:28:42.813Z,17.16
2022-10-29T14:31:15.600Z,17.09
2022-10-29T14:33:45.078Z,16.84
2022-10-29T14:36:20.397Z,16.65
2022-10-29T14:38:57.646Z,16.39
2022-10-29T14:41:26.144Z,16.06
2022-10-29T14:44:27.492Z,15.75
2022-10-29T14:47:08.572Z,15.47
2022-10-29T14:49:40.664Z,15.21
2022-10-29T14:52:37.062Z,14.97
2022-10-29T14:55:08.220Z,14.71
2022-10-29T14:57:41.435Z,14.51
2022-10-29T15:00:21.695Z,14.31
2022-10-29T15:02:48.548Z,14.10
2022-10-29T15:05:33.377Z,13.91
2022-10-29T15:08:09.159Z,13.70
2022-10-29T15:10:53.969Z,13.53
2022-10-29T15:13:29.791Z,13.33
2022-10-29T15:16:09.462Z,13.17
2022-10-29T15:18:37.925Z,13.01
2022-10-29T15:21:05.619Z,12.86
2022-10-29T15:23:45.462Z,12.72
2022-10-29T15:26:17.516Z,12.60
2022-10-29T15:28:46.265Z,12.48
2022-10-29T15:31:33.276Z,12.37
2022-10-29T15:34:14.718Z,12.25
2022-10-29T15:36:52.054Z,12.14
2022-10-29T15:39:22.474Z,12.04
2022-10-29T15:41:50.751Z,11.94
2022-10-29T15:44:31.513Z,11.84
2022-10-29T15:47:00.504Z,11.75
2022-10-29T15:49:31.447Z,11.68
2022-10-29T15:52:00.342Z,11.63
2022-10-29T15:54:27.831Z,11.58
2022-10-29T15:56:54.546Z,11.55
2022-10-29T15:59:24.876Z,11.52
2022-10-29T16:01:51.413Z,11.50
2022-10-29T16:04:18.191Z,11.48
2022-10-29T16:06:44.700Z,11.45
2022-10-29T16:09:17.917Z,11.42
2022-10-29T16:11:44.559Z,11.40
2022-10-29T16:14:11.076Z,11.36
2022-10-29T16:16:37.950Z,11.33
2022-10-29T16:19:04.513Z,11.27
2022-10-29T16:21:31.208Z,11.22
2022-10-29T16:23:57.684Z,11.17
2022-10-29T16:26:25.932Z,11.12
2022-10-29T16:28:52.894Z,11.08
2022-10-29T16:31:20.588Z,11.05
2022-10-29T16:33:52.872Z,11.02
2022-10-29T16:36:19.823Z,10.99
2022-10-29T16:38:46.315Z,10.95
2022-10-29T16:41:16.993Z,10.92
2022-10-29T16:43:44.226Z,10.89
2022-10-29T16:46:12.071Z,10.87
2022-10-29T16:48:39.568Z,10.84
2022-10-29T16:51:06.796Z,10.80
2022-10-29T16:53:34.165Z,10.76
2022-10-29T16:56:01.102Z,10.70
2022-10-29T16:58:27.650Z,10.66
2022-10-29T17:01:08.149Z,10.63
2022-10-29T17:03:34.857Z,10.58
2022-10-29T17:06:10.159Z,10.54
2022-10-29T17:08:38.104Z,10.50
2022-10-29T17:11:06.992Z,10.43
2022-10-29T17:13:34.538Z,10.37
2022-10-29T17:16:01.177Z,10.30
2022-10-29T17:18:27.612Z,10.27
2022-10-29T17:20:55.947Z,10.24
2022-10-29T17:23:22.434Z,10.20
2022-10-29T17:25:54.823Z,10.19
2022-10-29T17:28:22.687Z,10.18
2022-10-29T17:30:49.181Z,10.17
2022-10-29T17:33:16.159Z,10.14
2022-10-29T17:35:43.805Z,10.12
2022-10-29T17:38:11.279Z,10.12
2022-10-29T17:40:38.353Z,10.14
2022-10-29T17:43:04.869Z,10.17
2022-10-29T17:45:31.329Z,10.18
2022-10-29T17:47:59.273Z,10.19
2022-10-29T17:50:26.767Z,10.20
2022-10-29T17:52:54.439Z,10.19
2022-10-29T17:55:21.291Z,10.17
2022-10-29T17:57:47.819Z,10.16
2022-10-29T18:00:15.192Z,10.14
2022-10-29T18:02:42.187Z,10.13
2022-10-29T18:05:09.486Z,10.12
2022-10-29T18:07:36.026Z,10.12
2022-10-29T18:10:03.262Z,10.12
2022-10-29T18:12:29.730Z,10.11
2022-10-29T18:14:56.262Z,10.10
2022-10-29T18:17:22.942Z,10.10
2022-10-29T18:19:49.553Z,10.09
2022-10-29T18:22:16.297Z,10.05
2022-10-29T18:24:42.843Z,10.02
2022-10-29T18:27:09.449Z,9.99
2022-10-29T18:29:35.969Z,9.96
2022-10-29T18:32:02.407Z,9.94
2022-10-29T18:34:29.613Z,9.90
2022-10-29T18:36:56.147Z,9.84
2022-10-29T18:39:22.598Z,9.78
2022-10-29T18:41:49.131Z,9.70
2022-10-29T18:44:15.673Z,9.62
2022-10-29T18:46:42.152Z,9.54
2022-10-29T18:49:10.695Z,9.45
2022-10-29T18:51:37.166Z,9.37
2022-10-29T18:54:03.981Z,9.29
2022-10-29T18:56:30.590Z,9.23
2022-10-29T18:58:58.388Z,9.18
2022-10-29T19:01:28.187Z,9.15
2022-10-29T19:03:57.143Z,9.10
2022-10-29T19:06:26.610Z,9.07
2022-10-29T19:08:53.964Z,9.07
2022-10-29T19:11:23.464Z,9.05
2022-10-29T19:13:54.730Z,9.01
2022-10-29T19:16:21.572Z,8.97
2022-10-29T19:18:48.728Z,8.93
2022-10-29T19:21:18.074Z,8.90
2022-10-29T19:23:45.700Z,8.87
2022-10-29T19:26:15.074Z,8.84
2022-10-29T19:28:42.871Z,8.82
2022-10-29T19:31:21.495Z,8.80
2022-10-29T19:33:53.410Z,8.77
2022-10-29T19:36:21.539Z,8.76
2022-10-29T19:38:48.686Z,8.72
2022-10-29T19:41:16.213Z,8.69
2022-10-29T19:43:43.546Z,8.65
2022-10-29T19:46:12.507Z,8.62
2022-10-29T19:48:40.073Z,8.59
2022-10-29T19:51:08.043Z,8.58
2022-10-29T19:53:37.101Z,8.56
2022-10-29T19:56:03.682Z,8.54
2022-10-29T19:58:30.174Z,8.50
2022-10-29T20:01:04.510Z,8.45
2022-10-29T20:03:31.092Z,8.41
2022-10-29T20:05:57.628Z,8.36
2022-10-29T20:08:24.168Z,8.33
2022-10-29T20:11:00.274Z,8.28
2022-10-29T20:13:27.087Z,8.25
2022-10-29T20:15:54.281Z,8.20
2022-10-29T20:18:20.938Z,8.17
2022-10-29T20:20:53.835Z,8.13
2022-10-29T20:23:20.417Z,8.13
2022-10-29T20:25:46.945Z,8.12
2022-10-29T20:28:13.491Z,8.11
2022-10-29T20:30:40.025Z,8.11
2022-10-29T20:33:06.466Z,8.08
2022-10-29T20:35:35.076Z,8.05
2022-10-29T20:38:01.858Z,8.02
2022-10-29T20:40:28.642Z,7.97
2022-10-29T20:42:55.139Z,7.94
2022-10-29T20:45:21.721Z,7.91
2022-10-29T20:47:48.196Z,7.88
2022-10-29T20:50:14.804Z,7.84
2022-10-29T20:52:45.674Z,7.82
2022-10-29T20:55:14.946Z,7.79
2022-10-29T20:57:41.389Z,7.76
2022-10-29T21:00:08.846Z,7.74
2022-10-29T21:02:35.321Z,7.72
2022-10-29T21:05:02.031Z,7.72
2022-10-29T21:07:28.550Z,7.72
2022-10-29T21:09:55.015Z,7.71
2022-10-29T21:12:21.604Z,7.72
2022-10-29T21:14:48.028Z,7.75
2022-10-29T21:17:14.817Z,7.78
2022-10-29T21:19:41.319Z,7.82
2022-10-29T21:22:07.812Z,7.86
2022-10-29T21:24:35.575Z,7.91
2022-10-29T21:27:02.538Z,7.95
2022-10-29T21:29:28.988Z,7.99
2022-10-29T21:31:55.508Z,8.02
2022-10-29T21:34:22.769Z,8.04
2022-10-29T21:36:49.206Z,8.05
2022-10-29T21:39:15.756Z,8.06
2022-10-29T21:41:42.288Z,8.07
2022-10-29T21:44:08.935Z,8.07
2022-10-29T21:46:35.355Z,8.09
2022-10-29T21:49:02.113Z,8.10
2022-10-29T21:51:28.651Z,8.12
2022-10-29T21:53:55.191Z,8.15
2022-10-29T21:56:21.735Z,8.17
2022-10-29T21:58:50.491Z,8.18
2022-10-29T22:01:17.470Z,8.20
2022-10-29T22:03:45.612Z,8.23
2022-10-29T22:06:23.468Z,8.24
2022-10-29T22:08:58.025Z,8.25
2022-10-29T22:11:25.971Z,8.24
2022-10-29T22:13:53.840Z,8.25
2022-10-29T22:16:21.199Z,8.26
2022-10-29T22:18:47.660Z,8.26
2022-10-29T22:21:16.898Z,8.27
2022-10-29T22:23:45.020Z,8.28
2022-10-29T22:26:13.303Z,8.29
2022-10-29T22:28:39.841Z,8.31
2022-10-29T22:31:07.302Z,8.33
2022-10-29T22:33:35.072Z,8.34
2022-10-29T22:36:06.016Z,8.35
2022-10-29T22:38:32.968Z,8.37
2022-10-29T22:41:17.117Z,8.39
2022-10-29T22:43:44.606Z,8.40
2022-10-29T22:46:13.372Z,8.41
2022-10-29T22:48:40.447Z,8.42
2022-10-29T22:51:13.923Z,8.44
2022-10-29T22:53:40.879Z,8.44
2022-10-29T22:56:10.510Z,8.43
2022-10-29T22:58:37.028Z,8.43
2022-10-29T23:01:06.640Z,8.42
2022-10-29T23:03:34.249Z,8.42
2022-10-29T23:06:03.576Z,8.41
2022-10-29T23:08:30.865Z,8.39
2022-10-29T23:10:57.813Z,8.37
2022-10-29T23:13:24.575Z,8.36
2022-10-29T23:15:53.256Z,8.35
2022-10-29T23:18:19.999Z,8.35
2022-10-29T23:20:46.637Z,8.35
2022-10-29T23:23:13.911Z,8.33
2022-10-29T23:25:41.629Z,8.31
2022-10-29T23:28:09.339Z,8.29
2022-10-29T23:30:36.184Z,8.27
2022-10-29T23:33:02.631Z,8.25
2022-10-29T23:35:29.158Z,8.21
2022-10-29T23:37:55.777Z,8.19
2022-10-29T23:40:22.652Z,8.16
2022-10-29T23:42:49.196Z,8.13
2022-10-29T23:45:15.731Z,8.10
2022-10-29T23:47:42.273Z,8.07
2022-10-29T23:50:09.459Z,8.03
2022-10-29T23:52:35.880Z,7.99
2022-10-29T23:55:02.410Z,7.95
2022-10-29T23:57:28.853Z,7.91
2022-10-29T23:59:55.280Z,7.87
